createdAt,value
2018-05-01T09:30:01.022Z,17.20
2018-05-01T09:32:32.406Z,17.10
2018-05-01T09:35:04.886Z,17.00
2018-05-01T09:37:36.545Z,17.10
2018-05-01T09:40:08.198Z,17.40
2018-05-01T09:42:39.598Z,17.80
2018-05-01T09:45:11.002Z,18.20
2018-05-01T09:47:42.449Z,18.50
2018-05-01T09:50:13.797Z,18.50
2018-05-01T09:52:45.681Z,18.70
2018-05-01T09:55:17.821Z,19.00
2018-05-01T09:57:49.697Z,19.40
2018-05-01T10:00:21.594Z,19.70
2018-05-01T10:02:53.521Z,20.00
2018-05-01T10:05:25.402Z,20.40
2018-05-01T10:07:57.282Z,20.70
2018-05-01T10:10:29.169Z,20.50
2018-05-01T10:13:01.806Z,19.40
2018-05-01T10:15:34.118Z,19.40
2018-05-01T10:18:06.753Z,18.40
2018-05-01T10:20:38.659Z,18.40
2018-05-01T10:23:11.319Z,19.00
2018-05-01T10:25:43.990Z,18.50
2018-05-01T10:28:15.918Z,18.50
2018-05-01T10:30:47.802Z,18.60
2018-05-01T10:33:19.677Z,18.60
2018-05-01T10:35:51.573Z,18.80
2018-05-01T10:38:23.452Z,19.40
2018-05-01T10:40:55.338Z,19.50
2018-05-01T10:43:27.290Z,19.10
2018-05-01T10:45:59.936Z,19.60
2018-05-01T10:48:31.817Z,19.50
2018-05-01T10:51:03.718Z,19.20
2018-05-01T10:53:35.582Z,18.50
2018-05-01T10:56:07.692Z,18.20
2018-05-01T10:58:39.562Z,18.10
2018-05-01T11:01:11.441Z,17.90
2018-05-01T11:03:43.318Z,17.70
2018-05-01T11:06:15.197Z,17.40
2018-05-01T11:08:47.837Z,17.00
2018-05-01T11:11:19.840Z,17.00
2018-05-01T11:13:52.736Z,16.70
2018-05-01T11:16:24.626Z,16.70
2018-05-01T11:18:56.517Z,16.60
2018-05-01T11:21:28.401Z,16.70
2018-05-01T11:24:01.041Z,16.80
2018-05-01T11:26:32.926Z,16.80
2018-05-01T11:29:04.806Z,16.80
2018-05-01T11:31:37.470Z,16.70
2018-05-01T11:34:10.110Z,16.60
2018-05-01T11:36:41.998Z,16.60
2018-05-01T11:39:14.093Z,16.60
2018-05-01T11:41:46.003Z,16.70
2018-05-01T11:44:18.118Z,16.70
2018-05-01T11:46:50.019Z,16.80
2018-05-01T11:49:21.910Z,16.80
2018-05-01T11:51:53.801Z,16.90
2018-05-01T11:54:25.689Z,17.00
2018-05-01T11:56:57.573Z,17.00
2018-05-01T11:59:29.462Z,17.10
2018-05-01T12:02:02.131Z,17.30
2018-05-01T12:04:34.031Z,17.20
2018-05-01T12:07:06.672Z,17.40
2018-05-01T12:09:38.542Z,17.40
2018-05-01T12:12:11.443Z,17.40
2018-05-01T12:14:43.329Z,17.40
2018-05-01T12:17:15.229Z,17.50
2018-05-01T12:19:47.102Z,17.50
2018-05-01T12:22:18.993Z,17.60
2018-05-01T12:24:50.880Z,17.50
2018-05-01T12:27:22.769Z,17.50
2018-05-01T12:29:54.639Z,17.10
2018-05-01T12:32:27.302Z,16.90
2018-05-01T12:34:59.178Z,16.90
2018-05-01T12:37:31.072Z,16.90
2018-05-01T12:40:02.959Z,16.80
2018-05-01T12:42:34.849Z,16.60
2018-05-01T12:45:07.507Z,16.70
2018-05-01T12:47:40.163Z,16.80
2018-05-01T12:50:12.048Z,16.80
2018-05-01T12:52:43.943Z,16.90
2018-05-01T12:55:16.586Z,17.10
2018-05-01T12:57:48.471Z,17.10
2018-05-01T13:00:20.360Z,17.20
2018-05-01T13:02:52.251Z,17.20
2018-05-01T13:05:24.139Z,17.20
2018-05-01T13:07:56.026Z,17.20
2018-05-01T13:10:28.672Z,17.00
2018-05-01T13:13:00.550Z,16.90
2018-05-01T13:15:32.438Z,16.90
2018-05-01T13:18:04.326Z,16.80
2018-05-01T13:20:36.221Z,16.80
2018-05-01T13:23:08.116Z,16.80
2018-05-01T13:25:40.764Z,17.10
2018-05-01T13:28:12.661Z,17.00
2018-05-01T13:30:44.830Z,17.10
2018-05-01T13:33:16.710Z,17.20
2018-05-01T13:35:48.581Z,17.10
2018-05-01T13:38:20.474Z,17.10
2018-05-01T13:40:52.345Z,17.10
2018-05-01T13:43:25.006Z,16.80
2018-05-01T13:45:56.905Z,16.80
2018-05-01T13:48:28.795Z,16.70
2018-05-01T13:51:00.669Z,16.60
2018-05-01T13:53:32.554Z,16.40
2018-05-01T13:56:04.769Z,16.30
2018-05-01T13:58:36.656Z,16.30
2018-05-01T14:01:08.565Z,16.30
2018-05-01T14:03:41.215Z,16.10
2018-05-01T14:06:13.087Z,16.10
2018-05-01T14:08:45.756Z,16.20
2018-05-01T14:11:17.626Z,16.20
2018-05-01T14:13:50.284Z,16.30
2018-05-01T14:16:22.390Z,16.30
2018-05-01T14:18:54.559Z,16.30
2018-05-01T14:21:26.438Z,16.30
2018-05-01T14:23:58.330Z,16.40
2018-05-01T14:26:30.203Z,16.50
2018-05-01T14:29:02.099Z,16.70
2018-05-01T14:31:34.021Z,16.80
2018-05-01T14:34:05.905Z,16.80
2018-05-01T14:36:38.802Z,16.70
2018-05-01T14:39:10.969Z,16.70
2018-05-01T14:41:42.863Z,16.60
2018-05-01T14:44:14.771Z,16.50
2018-05-01T14:46:47.409Z,16.40
2018-05-01T14:49:19.534Z,16.40
2018-05-01T14:51:51.413Z,16.40
2018-05-01T14:54:23.357Z,16.50
2018-05-01T14:56:55.998Z,16.50
2018-05-01T14:59:28.205Z,16.50
2018-05-01T15:02:00.086Z,16.60
2018-05-01T15:04:31.987Z,16.70
2018-05-01T15:07:03.885Z,16.70
2018-05-01T15:09:36.765Z,16.50
2018-05-01T15:12:08.643Z,16.50
2018-05-01T15:14:40.533Z,16.50
2018-05-01T15:17:12.412Z,16.40
2018-05-01T15:19:44.306Z,16.50
2018-05-01T15:22:16.186Z,16.50
2018-05-01T15:24:48.072Z,16.50
2018-05-01T15:27:19.950Z,16.30
2018-05-01T15:29:52.160Z,16.20
2018-05-01T15:32:24.322Z,16.10
2018-05-01T15:34:56.223Z,16.00
2018-05-01T15:37:28.102Z,15.90
2018-05-01T15:39:59.998Z,15.90
2018-05-01T15:42:32.637Z,15.90
2018-05-01T15:45:04.586Z,15.90
2018-05-01T15:47:36.417Z,16.00
2018-05-01T15:50:08.362Z,16.10
2018-05-01T15:52:40.998Z,16.40
2018-05-01T15:55:12.895Z,16.40
2018-05-01T15:57:45.529Z,16.50
2018-05-01T16:00:17.542Z,16.60
2018-05-01T16:02:49.406Z,16.50
2018-05-01T16:05:21.306Z,16.50
2018-05-01T16:07:53.185Z,16.30
2018-05-01T16:10:25.090Z,16.20
2018-05-01T16:12:57.723Z,15.80
2018-05-01T16:15:29.931Z,15.80
2018-05-01T16:18:01.810Z,15.60
2018-05-01T16:20:33.702Z,15.50
2018-05-01T16:23:06.334Z,15.40
2018-05-01T16:25:38.221Z,15.40
2018-05-01T16:28:10.105Z,15.50
2018-05-01T16:30:42.322Z,15.50
2018-05-01T16:33:14.311Z,15.50
2018-05-01T16:35:46.115Z,15.60
2018-05-01T16:38:18.786Z,15.60
2018-05-01T16:40:50.665Z,15.60
2018-05-01T16:43:23.313Z,15.50
2018-05-01T16:45:55.190Z,15.50
2018-05-01T16:48:27.846Z,15.40
2018-05-01T16:50:59.750Z,15.40
2018-05-01T16:53:31.657Z,15.40
2018-05-01T16:56:03.533Z,15.30
2018-05-01T16:58:35.433Z,15.20
2018-05-01T17:01:07.318Z,15.10
2018-05-01T17:03:39.251Z,14.90
2018-05-01T17:06:11.422Z,14.80
2018-05-01T17:08:44.401Z,14.70
2018-05-01T17:11:16.340Z,14.70
2018-05-01T17:13:48.250Z,14.70
2018-05-01T17:16:20.390Z,14.60
2018-05-01T17:18:52.290Z,14.60
2018-05-01T17:21:24.183Z,14.50
2018-05-01T17:23:56.384Z,14.40
2018-05-01T17:26:28.274Z,14.30
2018-05-01T17:29:00.186Z,14.20
2018-05-01T17:31:32.059Z,14.20
2018-05-01T17:34:04.727Z,14.00
2018-05-01T17:36:37.366Z,14.00
2018-05-01T17:39:09.586Z,13.90
2018-05-01T17:41:41.466Z,13.90
2018-05-01T17:44:13.371Z,13.90
2018-05-01T17:46:45.256Z,13.90
2018-05-01T17:49:17.943Z,13.90
2018-05-01T17:51:50.598Z,13.90
2018-05-01T17:54:22.494Z,13.90
2018-05-01T17:56:54.369Z,13.90
2018-05-01T17:59:26.260Z,13.90
2018-05-01T18:01:58.143Z,13.80
2018-05-01T18:04:30.335Z,13.80
2018-05-01T18:07:02.435Z,13.80
2018-05-01T18:09:34.318Z,13.70
2018-05-01T18:12:06.426Z,13.70
2018-05-01T18:14:38.323Z,13.60
2018-05-01T18:17:10.207Z,13.60
2018-05-01T18:19:42.096Z,13.50
2018-05-01T18:22:14.754Z,13.40
2018-05-01T18:24:46.640Z,13.40
2018-05-01T18:27:19.987Z,13.30
2018-05-01T18:29:51.874Z,13.20
2018-05-01T18:32:23.738Z,13.20
2018-05-01T18:34:55.626Z,13.10
2018-05-01T18:37:27.788Z,13.10
2018-05-01T18:40:00.058Z,13.00
2018-05-01T18:42:32.942Z,12.80
2018-05-01T18:45:04.823Z,12.80
2018-05-01T18:47:36.695Z,12.70
2018-05-01T18:50:08.678Z,12.60
2018-05-01T18:52:40.794Z,12.50
2018-05-01T18:55:12.670Z,12.40
2018-05-01T18:57:44.569Z,12.30
2018-05-01T19:00:16.481Z,12.20
2018-05-01T19:02:48.406Z,12.10
2018-05-01T19:05:21.072Z,12.00
2018-05-01T19:07:52.955Z,12.00
2018-05-01T19:10:25.650Z,11.80
2018-05-01T19:12:57.539Z,11.80
2018-05-01T19:15:29.756Z,11.80
2018-05-01T19:18:01.546Z,11.70
2018-05-01T19:20:33.430Z,11.60
2018-05-01T19:23:05.314Z,11.60
2018-05-01T19:25:37.218Z,11.50
2018-05-01T19:28:09.144Z,11.50
2018-05-01T19:30:41.042Z,11.40
2018-05-01T19:33:12.918Z,11.40
2018-05-01T19:35:44.808Z,11.30
2018-05-01T19:38:16.679Z,11.30
2018-05-01T19:40:48.881Z,11.20
2018-05-01T19:43:20.771Z,11.20
2018-05-01T19:45:52.655Z,11.10
2018-05-01T19:48:24.534Z,11.10
2018-05-01T19:50:56.437Z,11.00
2018-05-01T19:53:28.322Z,11.00
2018-05-01T19:56:00.207Z,10.90
2018-05-01T19:58:32.415Z,10.90
2018-05-01T20:01:04.301Z,10.80
2018-05-01T20:03:36.189Z,10.80
2018-05-01T20:06:08.125Z,10.70
2018-05-01T20:08:39.997Z,10.70
2018-05-01T20:11:11.895Z,10.70
2018-05-01T20:13:43.770Z,10.60
2018-05-01T20:16:16.425Z,10.50
2018-05-01T20:18:48.618Z,10.50
2018-05-01T20:21:20.529Z,10.50
2018-05-01T20:23:52.407Z,10.50
2018-05-01T20:26:24.294Z,10.40
2018-05-01T20:28:56.930Z,10.30
2018-05-01T20:31:28.927Z,10.30
2018-05-01T20:34:01.593Z,10.20
2018-05-01T20:36:33.787Z,10.20
2018-05-01T20:39:05.666Z,10.20
2018-05-01T20:41:37.554Z,10.20
2018-05-01T20:44:09.437Z,10.10
2018-05-01T20:46:41.322Z,10.10
2018-05-01T20:49:13.970Z,10.00
